Aihui, Heilongjiang

9:59 AM CST on September 25, 2016 (GMT +0800)
Ignatyevo | | Change Station

Elev 636 ft 50.43 °N, 127.41 °E | Updated 29 minutes ago

Mostly Cloudy
Mostly Cloudy
52 °F
Feels Like 52 °F
N
18
Wind Variable Wind from NNW
Gusts 29 mph

Today
High -- | Low -- °F
--% Chance of Precip.
Yesterday
High -- | Low -- °F
Precip. -- in
Pressure 29.71 in
Visibility 6.2 miles
Clouds Mostly Cloudy 3300 ft
Dew Point 43 °F
Humidity 71%
Rainfall 0.00 in
Snow Depth Not available.
5:21 AM 5:21 PM
Waning Crescent, 32% visible
METAR UHBB 250130Z 34008G13MPS 9999 BKN033CB 11/06 Q1006 R36/210060 NOSIG RMK QFE737/0983
Pressure 29.71 in
Visibility 6.2 miles
Clouds Mostly Cloudy 3300 ft
Dew Point 43 °F
Humidity 71%
Rainfall 0.00 in
Snow Depth Not available.
5:21 AM 5:21 PM
Waning Crescent, 32% visible
METAR UHBB 250130Z 34008G13MPS 9999 BKN033CB 11/06 Q1006 R36/210060 NOSIG RMK QFE737/0983

10-Day Weather Forecast

No radar image for this location.
×

Almanac

Astronomy

Sep. 25, 2016 Rise Set
Actual Time
Civil Twilight
Nautical Twilight
Astronomical Twilight
Moon
Length of Visible Light
Length of Day
Tomorrow will be .
, % of the Moon is Illuminated

Today's Extremes

Country Highs Country Lows

Community

WunderPhotos

Upload Photos

1,941,519 photos uploaded!

WunderBlog® & News

Nearby

Air Quality

  Air Quality AQ Index Pollutant
Not available.

Snow Depth

Station Depth Elevation

Earthquake Activity

City Distance Mag. Time & Date
Minimum magnitude displayed is 2.5.

Coastal Water Temperatures

Place Temperature

Stations

Nearby Weather Stations

Station Location Temp. Windchill Dew Point Humidity Wind Precip. Elev Updated Type